createdAt,value
2023-05-14T00:01:18.940Z,18.15
2023-05-14T00:03:45.322Z,18.38
2023-05-14T00:06:11.885Z,18.50
2023-05-14T00:08:38.200Z,18.92
2023-05-14T00:11:04.721Z,19.40
2023-05-14T00:13:31.075Z,18.38
2023-05-14T00:15:57.447Z,18.27
2023-05-14T00:18:24.171Z,17.30
2023-05-14T00:20:54.590Z,17.77
2023-05-14T00:23:21.482Z,18.83
2023-05-14T00:25:47.936Z,18.45
2023-05-14T00:28:14.298Z,19.15
2023-05-14T00:30:40.806Z,19.40
2023-05-14T00:33:07.370Z,18.38
2023-05-14T00:35:36.613Z,17.52
2023-05-14T00:38:03.685Z,17.45
2023-05-14T00:40:30.067Z,17.92
2023-05-14T00:42:56.751Z,18.45
2023-05-14T00:45:23.166Z,19.08
2023-05-14T00:47:49.775Z,18.10
2023-05-14T00:50:16.475Z,18.65
2023-05-14T00:52:42.830Z,18.92
2023-05-14T00:55:09.545Z,17.08
2023-05-14T00:57:36.373Z,16.88
2023-05-14T01:00:04.208Z,17.30
2023-05-14T01:04:57.030Z,19.35
2023-05-14T01:07:42.039Z,18.30
2023-05-14T01:10:14.578Z,18.40
2023-05-14T01:12:59.605Z,19.08
2023-05-14T01:15:28.682Z,18.27
2023-05-14T01:17:59.128Z,19.52
2023-05-14T01:20:26.552Z,18.33
2023-05-14T01:22:53.066Z,18.70
2023-05-14T01:25:19.412Z,19.08
2023-05-14T01:28:01.022Z,18.65
2023-05-14T01:30:32.252Z,18.35
2023-05-14T01:33:00.449Z,17.85
2023-05-14T01:35:28.530Z,18.30
2023-05-14T01:37:56.662Z,19.40
2023-05-14T01:40:23.867Z,19.67
2023-05-14T01:42:51.961Z,17.65
2023-05-14T01:45:20.540Z,18.88
2023-05-14T01:47:46.950Z,18.65
2023-05-14T01:50:13.427Z,19.60
2023-05-14T01:52:39.889Z,19.58
2023-05-14T01:55:06.587Z,18.92
2023-05-14T01:57:32.981Z,18.10
2023-05-14T01:59:59.306Z,17.33
2023-05-14T02:02:25.930Z,17.30
2023-05-14T02:04:52.616Z,17.20
2023-05-14T02:07:19.036Z,19.13
2023-05-14T02:09:45.517Z,18.23
2023-05-14T02:12:11.907Z,17.70
2023-05-14T02:14:38.352Z,18.23
2023-05-14T02:17:04.802Z,18.70
2023-05-14T02:19:31.253Z,17.85
2023-05-14T02:21:58.946Z,17.35
2023-05-14T02:24:25.311Z,16.05
2023-05-14T02:26:51.710Z,16.98
2023-05-14T02:29:18.035Z,16.00
2023-05-14T02:31:44.421Z,16.85
2023-05-14T02:34:11.025Z,16.70
2023-05-14T02:36:37.367Z,16.40
2023-05-14T02:39:04.756Z,16.52
2023-05-14T02:41:31.132Z,17.02
2023-05-14T02:43:57.471Z,15.98
2023-05-14T02:46:23.927Z,15.65
2023-05-14T02:48:50.329Z,16.38
2023-05-14T02:51:16.824Z,15.52
2023-05-14T02:53:43.172Z,14.88
2023-05-14T02:56:09.560Z,16.77
2023-05-14T02:58:35.883Z,15.65
2023-05-14T03:01:02.319Z,15.82
2023-05-14T03:03:29.727Z,14.98
2023-05-14T03:05:56.909Z,15.80
2023-05-14T03:08:23.239Z,15.48
2023-05-14T03:10:49.637Z,15.50
2023-05-14T03:13:20.637Z,15.40
2023-05-14T03:15:47.434Z,14.50
2023-05-14T03:18:13.970Z,15.60
2023-05-14T03:20:42.024Z,16.23
2023-05-14T03:23:08.405Z,16.80
2023-05-14T03:25:34.885Z,16.35
2023-05-14T03:28:01.289Z,15.52
2023-05-14T03:30:27.730Z,14.38
2023-05-14T03:32:54.266Z,16.02
2023-05-14T03:35:20.661Z,15.45
2023-05-14T03:37:46.974Z,14.35
2023-05-14T03:40:13.327Z,15.43
2023-05-14T03:42:39.657Z,15.13
2023-05-14T03:45:06.629Z,15.40
2023-05-14T03:47:32.975Z,15.15
2023-05-14T03:49:59.398Z,14.98
2023-05-14T03:52:25.772Z,15.80
2023-05-14T03:54:52.103Z,14.80
2023-05-14T03:57:18.421Z,14.73
2023-05-14T03:59:44.764Z,14.43
2023-05-14T04:02:11.187Z,14.63
2023-05-14T04:04:37.668Z,14.90
2023-05-14T04:07:04.169Z,15.13
2023-05-14T04:09:30.520Z,15.60
2023-05-14T04:11:56.886Z,16.05
2023-05-14T04:14:23.224Z,18.02
2023-05-14T04:16:49.604Z,17.88
2023-05-14T04:19:16.156Z,17.88
2023-05-14T04:21:42.670Z,18.98
2023-05-14T04:24:09.016Z,20.73
2023-05-14T04:26:35.372Z,21.90
2023-05-14T04:29:03.167Z,22.00
2023-05-14T04:33:55.862Z,20.60
2023-05-14T04:36:22.187Z,22.27
2023-05-14T04:38:48.523Z,21.27
2023-05-14T04:41:14.859Z,22.55
2023-05-14T04:43:41.170Z,20.38
2023-05-14T04:46:07.547Z,21.10
2023-05-14T04:48:33.957Z,19.42
2023-05-14T04:51:00.864Z,21.35
2023-05-14T04:53:27.317Z,21.75
2023-05-14T04:55:54.101Z,18.48
2023-05-14T04:58:20.478Z,20.45
2023-05-14T05:00:46.972Z,22.17
2023-05-14T05:03:13.466Z,22.50
2023-05-14T05:05:39.845Z,24.98
2023-05-14T05:08:06.255Z,24.13
2023-05-14T05:10:32.643Z,23.77
2023-05-14T05:12:58.965Z,25.25
2023-05-14T05:15:26.563Z,29.15
2023-05-14T05:17:53.285Z,27.55
2023-05-14T05:20:19.751Z,29.80
2023-05-14T05:22:46.080Z,30.42
2023-05-14T05:25:12.945Z,31.02
2023-05-14T05:27:39.367Z,28.08
2023-05-14T05:30:06.457Z,27.50
2023-05-14T05:32:32.803Z,26.90
2023-05-14T05:34:59.229Z,26.30
2023-05-14T05:37:25.655Z,26.33
2023-05-14T05:39:52.045Z,25.65
2023-05-14T05:42:18.367Z,24.55
2023-05-14T05:44:44.802Z,25.55
2023-05-14T05:47:11.135Z,24.77
2023-05-14T05:49:37.682Z,24.15
2023-05-14T05:52:04.223Z,23.70
2023-05-14T05:54:32.177Z,22.88
2023-05-14T05:56:58.925Z,23.48
2023-05-14T05:59:25.676Z,21.38
2023-05-14T06:01:52.057Z,21.13
2023-05-14T06:04:18.460Z,20.65
2023-05-14T06:06:44.816Z,19.58
2023-05-14T06:09:11.198Z,19.98
2023-05-14T06:11:37.578Z,19.77
2023-05-14T06:14:04.602Z,20.27
2023-05-14T06:16:30.991Z,20.20
2023-05-14T06:18:57.655Z,18.80
2023-05-14T06:21:24.023Z,18.35
2023-05-14T06:23:50.416Z,18.77
2023-05-14T06:26:16.782Z,19.58
2023-05-14T06:28:43.125Z,18.98
2023-05-14T06:31:09.597Z,18.70
2023-05-14T06:33:35.981Z,18.20
2023-05-14T06:36:03.581Z,18.20
2023-05-14T06:38:30.128Z,18.73
2023-05-14T06:40:56.507Z,17.50
2023-05-14T06:43:22.888Z,18.75
2023-05-14T06:45:49.814Z,18.55
2023-05-14T06:48:18.687Z,16.93
2023-05-14T06:50:45.810Z,17.50
2023-05-14T06:53:12.206Z,17.88
2023-05-14T06:55:38.623Z,17.45
2023-05-14T06:58:08.439Z,18.00
2023-05-14T07:00:35.089Z,18.58
2023-05-14T07:03:01.445Z,18.27
2023-05-14T07:05:27.959Z,17.95
2023-05-14T07:07:54.539Z,18.20
2023-05-14T07:10:21.245Z,17.88
2023-05-14T07:12:47.893Z,17.48
2023-05-14T07:15:14.214Z,17.80
2023-05-14T07:17:40.790Z,17.13
2023-05-14T07:20:07.480Z,18.45
2023-05-14T07:22:34.167Z,18.08
2023-05-14T07:25:00.686Z,19.08
2023-05-14T07:27:27.095Z,17.95
2023-05-14T07:29:53.672Z,18.33
2023-05-14T07:32:20.112Z,18.30
2023-05-14T07:34:46.638Z,18.33
2023-05-14T07:37:12.982Z,18.42
2023-05-14T07:39:41.729Z,18.40
2023-05-14T07:42:08.129Z,18.25
2023-05-14T07:44:34.536Z,18.05
2023-05-14T07:47:01.015Z,18.00
2023-05-14T07:49:27.430Z,18.52
2023-05-14T07:51:53.787Z,18.40
2023-05-14T07:54:20.286Z,19.23
2023-05-14T07:56:46.766Z,20.13
2023-05-14T07:59:13.092Z,20.38
2023-05-14T08:01:39.685Z,20.23
2023-05-14T08:04:06.198Z,20.92
2023-05-14T08:06:32.876Z,21.48
2023-05-14T08:08:59.269Z,20.42
2023-05-14T08:11:26.228Z,20.60
2023-05-14T08:13:52.815Z,21.33
2023-05-14T08:16:19.211Z,22.42
2023-05-14T08:18:45.635Z,21.65
2023-05-14T08:21:12.051Z,21.58
2023-05-14T08:23:38.450Z,21.60
2023-05-14T08:26:04.833Z,21.83
2023-05-14T08:28:31.222Z,23.25
2023-05-14T08:30:57.588Z,23.85
2023-05-14T08:33:23.969Z,23.02
2023-05-14T08:35:53.079Z,22.75
2023-05-14T08:38:19.441Z,22.73
2023-05-14T08:40:49.617Z,21.42
2023-05-14T08:43:20.057Z,21.08
2023-05-14T08:45:46.612Z,20.17
2023-05-14T08:48:14.710Z,19.70
2023-05-14T08:50:41.376Z,19.08
2023-05-14T08:53:07.721Z,18.67
2023-05-14T08:55:34.289Z,16.92
2023-05-14T08:58:01.220Z,17.50
2023-05-14T09:00:27.817Z,17.48
2023-05-14T09:02:54.827Z,16.40
2023-05-14T09:05:22.106Z,16.58
2023-05-14T09:07:48.717Z,16.02
2023-05-14T09:10:15.986Z,15.05
2023-05-14T09:15:08.714Z,13.80
2023-05-14T09:17:35.296Z,14.50
2023-05-14T09:20:01.744Z,13.80
2023-05-14T09:22:30.140Z,14.00
2023-05-14T09:25:07.006Z,13.52
2023-05-14T09:30:06.358Z,13.98
2023-05-14T09:32:53.518Z,13.75
2023-05-14T09:35:20.777Z,14.05
2023-05-14T09:37:48.666Z,13.35
2023-05-14T09:40:15.804Z,13.65
2023-05-14T09:42:42.386Z,14.35
2023-05-14T09:45:09.567Z,14.15
2023-05-14T09:47:37.086Z,13.68
2023-05-14T09:50:03.875Z,13.68
2023-05-14T09:52:30.511Z,13.20
2023-05-14T09:54:57.004Z,12.25
2023-05-14T09:57:23.356Z,12.13
2023-05-14T09:59:49.779Z,10.68
2023-05-14T10:02:18.879Z,10.55
2023-05-14T10:04:45.346Z,10.23
2023-05-14T10:07:12.774Z,9.88
2023-05-14T10:09:41.648Z,9.60
2023-05-14T10:12:08.396Z,9.32
2023-05-14T10:17:01.836Z,8.35
2023-05-14T10:19:32.533Z,7.53
2023-05-14T10:22:07.023Z,7.80
2023-05-14T10:24:34.098Z,7.35
2023-05-14T10:27:00.843Z,7.07
2023-05-14T10:29:37.343Z,7.28
2023-05-14T10:32:07.769Z,7.40
2023-05-14T10:34:38.215Z,6.85
2023-05-14T10:37:05.336Z,6.57
2023-05-14T10:39:43.908Z,7.53
2023-05-14T10:42:35.379Z,6.47
2023-05-14T10:45:05.750Z,6.15
2023-05-14T10:47:32.237Z,6.53
2023-05-14T10:49:59.542Z,5.47
2023-05-14T10:52:26.339Z,5.00
2023-05-14T10:54:56.730Z,5.13
2023-05-14T10:57:24.277Z,5.80
2023-05-14T11:03:18.780Z,5.43
2023-05-14T11:08:11.855Z,4.82
2023-05-14T11:10:39.372Z,5.22
2023-05-14T11:13:06.042Z,5.30
2023-05-14T11:15:32.426Z,4.22
2023-05-14T11:17:58.873Z,4.05
2023-05-14T11:20:26.056Z,4.25
2023-05-14T11:22:52.562Z,4.72
2023-05-14T11:25:19.217Z,5.47
2023-05-14T11:27:46.937Z,5.60
2023-05-14T11:30:13.424Z,5.10
2023-05-14T11:32:40.552Z,5.50
2023-05-14T11:35:07.198Z,5.25
2023-05-14T11:37:33.525Z,5.00
2023-05-14T11:40:00.495Z,4.40
2023-05-14T11:44:54.142Z,3.88
2023-05-14T11:47:21.597Z,3.67
2023-05-14T11:49:48.586Z,3.35
2023-05-14T11:52:15.507Z,2.60
2023-05-14T11:57:12.599Z,2.53
2023-05-14T11:59:39.314Z,2.40
2023-05-14T12:02:08.369Z,1.88
2023-05-14T12:04:34.905Z,1.77
2023-05-14T12:07:07.156Z,1.92
2023-05-14T12:09:35.947Z,4.25
2023-05-14T12:12:07.757Z,0.40
2023-05-14T12:14:37.030Z,1.10
2023-05-14T12:17:03.411Z,0.70
2023-05-14T12:19:30.277Z,0.70
2023-05-14T12:22:00.941Z,0.60
2023-05-14T12:24:27.263Z,0.90
2023-05-14T12:26:55.439Z,0.93
2023-05-14T12:29:22.112Z,0.82
2023-05-14T12:36:41.574Z,1.20
2023-05-14T12:39:08.272Z,1.52
2023-05-14T12:48:54.189Z,2.17
2023-05-14T12:51:20.580Z,1.80
2023-05-14T12:53:46.930Z,1.52
2023-05-14T12:56:13.476Z,1.20
2023-05-14T12:58:40.057Z,1.02
2023-05-14T13:01:06.822Z,0.70
2023-05-14T13:03:33.220Z,0.70
2023-05-14T13:05:59.626Z,0.50
2023-05-14T13:08:26.302Z,0.50
2023-05-14T13:10:53.132Z,0.47
2023-05-14T13:13:19.706Z,0.50
2023-05-14T13:15:46.807Z,0.45
2023-05-14T13:18:13.556Z,0.40
2023-05-14T13:20:42.401Z,0.30
2023-05-14T13:23:09.534Z,0.40
2023-05-14T13:25:35.967Z,0.38
2023-05-14T13:28:02.345Z,0.30
2023-05-14T13:30:28.739Z,0.35
2023-05-14T13:32:55.106Z,0.30
2023-05-14T13:35:21.609Z,0.50
2023-05-14T13:37:48.163Z,0.50
2023-05-14T13:40:14.498Z,0.40
2023-05-14T13:42:40.894Z,0.45
2023-05-14T13:45:07.526Z,0.50
2023-05-14T13:47:34.008Z,0.40
2023-05-14T13:50:00.387Z,0.50
2023-05-14T13:52:26.726Z,0.40
2023-05-14T13:54:53.199Z,0.30
2023-05-14T13:57:19.741Z,0.50
2023-05-14T13:59:46.396Z,0.38
2023-05-14T14:02:12.760Z,0.40
2023-05-14T14:04:39.104Z,0.40
2023-05-14T14:07:05.440Z,0.70
2023-05-14T14:10:11.437Z,0.40
2023-05-14T14:12:37.878Z,0.70
2023-05-14T14:15:05.391Z,0.40
2023-05-14T14:17:31.783Z,0.32
2023-05-14T14:19:58.103Z,0.40
2023-05-14T14:22:27.222Z,0.70
2023-05-14T14:24:55.389Z,0.50
2023-05-14T14:27:22.388Z,0.55
2023-05-14T14:29:48.748Z,1.15
2023-05-14T14:32:15.227Z,0.70
2023-05-14T14:34:41.604Z,0.68
2023-05-14T14:37:08.065Z,0.82
2023-05-14T14:39:34.457Z,1.05
2023-05-14T14:42:00.924Z,0.80
2023-05-14T14:44:27.245Z,0.90
2023-05-14T14:46:53.590Z,0.85
2023-05-14T14:49:19.997Z,0.50
2023-05-14T14:51:46.939Z,0.63
2023-05-14T14:56:39.565Z,0.90
2023-05-14T14:59:05.994Z,0.70
2023-05-14T15:01:32.478Z,0.52
2023-05-14T15:03:58.851Z,0.50
2023-05-14T15:06:25.185Z,0.52
2023-05-14T15:08:51.522Z,0.50
2023-05-14T15:11:17.944Z,0.70
2023-05-14T15:13:44.400Z,0.77
2023-05-14T15:16:11.254Z,1.23
2023-05-14T15:18:37.745Z,0.90
2023-05-14T15:21:04.339Z,1.20
2023-05-14T15:23:30.732Z,1.25
2023-05-14T15:25:57.044Z,1.70
2023-05-14T15:28:23.479Z,1.60
2023-05-14T15:30:49.816Z,1.80
2023-05-14T15:33:19.218Z,1.50
2023-05-14T15:35:46.093Z,1.80
2023-05-14T15:38:12.483Z,1.80
2023-05-14T15:40:38.874Z,1.88
2023-05-14T15:43:05.406Z,1.20
2023-05-14T15:45:31.804Z,1.37
2023-05-14T15:47:58.176Z,1.33
2023-05-14T15:50:25.807Z,1.43
2023-05-14T15:52:52.488Z,1.60
2023-05-14T15:55:18.942Z,1.63
2023-05-14T15:57:45.499Z,1.77
2023-05-14T16:00:12.189Z,1.67
2023-05-14T16:02:39.147Z,1.67
2023-05-14T16:05:07.340Z,1.45
2023-05-14T16:07:33.886Z,1.75
2023-05-14T16:10:00.398Z,1.45
2023-05-14T16:12:26.808Z,1.83
2023-05-14T16:14:53.236Z,1.75
2023-05-14T16:17:19.600Z,1.70
2023-05-14T16:19:45.970Z,2.00
2023-05-14T16:22:12.332Z,2.10
2023-05-14T16:24:38.681Z,2.17
2023-05-14T16:27:05.210Z,1.80
2023-05-14T16:29:31.575Z,2.40
2023-05-14T16:31:58.416Z,1.80
2023-05-14T16:34:25.123Z,1.80
2023-05-14T16:36:51.483Z,2.42
2023-05-14T16:39:18.038Z,1.83
2023-05-14T16:41:44.395Z,2.10
2023-05-14T16:44:10.917Z,2.10
2023-05-14T16:46:37.350Z,1.80
2023-05-14T16:49:03.797Z,2.03
2023-05-14T16:51:30.824Z,1.45
2023-05-14T16:53:57.136Z,1.70
2023-05-14T16:56:30.316Z,1.65
2023-05-14T16:58:56.691Z,2.28
2023-05-14T17:01:23.119Z,3.20
2023-05-14T17:03:49.691Z,2.90
2023-05-14T17:06:16.079Z,2.60
2023-05-14T17:08:42.392Z,2.58
2023-05-14T17:11:08.781Z,3.17
2023-05-14T17:13:35.621Z,3.53
2023-05-14T17:16:02.080Z,2.88
2023-05-14T17:18:28.568Z,3.75
2023-05-14T17:20:54.998Z,4.25
2023-05-14T17:23:21.407Z,3.25
2023-05-14T17:25:47.746Z,3.38
2023-05-14T17:28:14.090Z,3.92
2023-05-14T17:30:40.823Z,6.35
2023-05-14T17:33:07.375Z,11.35
2023-05-14T17:35:36.191Z,5.80
2023-05-14T17:38:03.227Z,4.55
2023-05-14T17:40:29.669Z,5.50
2023-05-14T17:42:55.989Z,9.27
2023-05-14T17:45:22.476Z,5.90
2023-05-14T17:47:49.255Z,5.83
2023-05-14T17:50:15.807Z,9.18
2023-05-14T17:52:44.151Z,4.30
2023-05-14T17:55:10.960Z,4.20
2023-05-14T17:57:37.703Z,5.40
2023-05-14T18:00:07.523Z,3.08
2023-05-14T18:02:33.985Z,3.47
2023-05-14T18:05:00.564Z,5.38
2023-05-14T18:07:26.961Z,4.13
2023-05-14T18:09:53.280Z,5.05
2023-05-14T18:12:19.611Z,6.10
2023-05-14T18:14:45.960Z,4.47
2023-05-14T18:17:12.336Z,4.13
2023-05-14T18:19:40.879Z,3.92
2023-05-14T18:22:07.316Z,4.00
2023-05-14T18:24:33.676Z,4.47
2023-05-14T18:27:00.034Z,8.57
2023-05-14T18:29:26.336Z,5.70
2023-05-14T18:31:52.696Z,5.55
2023-05-14T18:34:19.083Z,5.38
2023-05-14T18:36:45.458Z,5.68
2023-05-14T18:39:11.773Z,5.85
2023-05-14T18:41:38.275Z,6.55
2023-05-14T18:44:04.604Z,6.20
2023-05-14T18:46:30.986Z,5.97
2023-05-14T18:48:57.421Z,5.85
2023-05-14T18:51:23.748Z,6.20
2023-05-14T18:53:50.130Z,6.78
2023-05-14T18:56:16.559Z,7.25
2023-05-14T18:58:42.871Z,6.68
2023-05-14T19:01:09.235Z,6.53
2023-05-14T19:03:35.826Z,6.45
2023-05-14T19:06:02.278Z,6.47
2023-05-14T19:08:28.632Z,6.78
2023-05-14T19:10:54.967Z,6.82
2023-05-14T19:13:21.315Z,6.85
2023-05-14T19:15:47.709Z,6.22
2023-05-14T19:18:14.149Z,6.32
2023-05-14T19:20:40.482Z,5.40
2023-05-14T19:23:06.816Z,5.55
2023-05-14T19:25:34.004Z,5.68
2023-05-14T19:28:01.724Z,5.53
2023-05-14T19:30:28.058Z,5.13
2023-05-14T19:32:54.392Z,4.75
2023-05-14T19:35:20.849Z,5.05
2023-05-14T19:37:47.211Z,5.00
2023-05-14T19:40:13.614Z,4.40
2023-05-14T19:42:39.973Z,4.50
2023-05-14T19:45:06.474Z,4.32
2023-05-14T19:47:33.123Z,4.50
2023-05-14T19:49:59.477Z,4.35
2023-05-14T19:52:25.838Z,4.47
2023-05-14T19:54:52.196Z,4.18
2023-05-14T19:57:18.519Z,4.70
2023-05-14T19:59:45.282Z,4.50
2023-05-14T20:02:18.169Z,4.77
2023-05-14T20:04:46.056Z,3.67
2023-05-14T20:07:13.939Z,3.50
2023-05-14T20:09:40.321Z,4.05
2023-05-14T20:12:07.051Z,3.50
2023-05-14T20:14:33.425Z,4.20
2023-05-14T20:17:00.066Z,3.78
2023-05-14T20:19:27.571Z,4.40
2023-05-14T20:21:54.038Z,5.10
2023-05-14T20:24:20.402Z,4.40
2023-05-14T20:26:46.828Z,3.88
2023-05-14T20:29:14.418Z,3.92
2023-05-14T20:34:07.156Z,4.40
2023-05-14T20:36:33.465Z,4.70
2023-05-14T20:39:00.481Z,4.93
2023-05-14T20:41:26.846Z,4.63
2023-05-14T20:43:53.157Z,4.50
2023-05-14T20:46:19.600Z,4.63
2023-05-14T20:48:46.968Z,4.75
2023-05-14T20:51:13.287Z,4.32
2023-05-14T20:53:40.131Z,4.53
2023-05-14T20:56:06.637Z,4.40
2023-05-14T20:58:32.975Z,3.80
2023-05-14T21:01:00.443Z,3.90
2023-05-14T21:05:55.937Z,3.90
2023-05-14T21:08:22.416Z,3.75
2023-05-14T21:10:48.746Z,3.80
2023-05-14T21:13:15.167Z,3.28
2023-05-14T21:15:41.489Z,3.70
2023-05-14T21:18:08.028Z,3.55
2023-05-14T21:20:34.442Z,4.45
2023-05-14T21:23:00.820Z,6.30
2023-05-14T21:25:27.322Z,7.47
2023-05-14T21:27:53.812Z,7.97
2023-05-14T21:30:20.253Z,7.03
2023-05-14T21:32:46.654Z,4.57
2023-05-14T21:35:13.141Z,4.20
2023-05-14T21:37:40.440Z,4.22
2023-05-14T21:40:09.260Z,3.97
2023-05-14T21:42:36.067Z,2.83
2023-05-14T21:45:02.409Z,3.23
2023-05-14T21:47:28.867Z,3.53
2023-05-14T21:49:55.252Z,4.25
2023-05-14T21:52:21.608Z,3.17
2023-05-14T21:54:47.926Z,3.60
2023-05-14T21:57:14.258Z,3.28
2023-05-14T21:59:40.679Z,4.45
2023-05-14T22:02:07.913Z,3.40
2023-05-14T22:04:35.196Z,2.97
2023-05-14T22:07:01.819Z,2.92
2023-05-14T22:09:28.172Z,3.40
2023-05-14T22:11:54.498Z,4.00
2023-05-14T22:14:20.902Z,4.32
2023-05-14T22:16:47.276Z,4.40
2023-05-14T22:19:15.784Z,4.32
2023-05-14T22:21:42.182Z,8.52
2023-05-14T22:24:08.550Z,5.82
2023-05-14T22:26:34.932Z,6.60
2023-05-14T22:29:01.317Z,5.15
2023-05-14T22:31:27.658Z,5.60
2023-05-14T22:33:54.351Z,6.03
2023-05-14T22:36:20.744Z,5.55
2023-05-14T22:38:47.095Z,5.57
2023-05-14T22:41:13.493Z,6.40
2023-05-14T22:43:39.895Z,6.78
2023-05-14T22:46:06.725Z,5.82
2023-05-14T22:48:33.093Z,5.68
2023-05-14T22:50:59.418Z,6.22
2023-05-14T22:53:25.782Z,9.60
2023-05-14T22:55:52.218Z,8.93
2023-05-14T22:58:18.630Z,7.68
2023-05-14T23:00:44.970Z,7.35
2023-05-14T23:03:11.318Z,8.88
2023-05-14T23:05:37.726Z,8.63
2023-05-14T23:08:04.127Z,9.43
2023-05-14T23:10:30.608Z,7.97
2023-05-14T23:12:56.949Z,7.95
2023-05-14T23:15:23.595Z,8.23
2023-05-14T23:17:50.211Z,8.27
2023-05-14T23:20:16.810Z,9.70
2023-05-14T23:22:43.140Z,10.40
2023-05-14T23:25:09.518Z,11.52
2023-05-14T23:27:35.978Z,13.40
2023-05-14T23:30:03.192Z,11.07
2023-05-14T23:32:29.816Z,10.52
2023-05-14T23:34:56.206Z,12.95
2023-05-14T23:37:23.045Z,11.45
2023-05-14T23:39:49.384Z,12.10
2023-05-14T23:42:15.792Z,13.25
2023-05-14T23:44:42.121Z,13.38
2023-05-14T23:47:08.775Z,12.43
2023-05-14T23:49:35.519Z,13.60
2023-05-14T23:52:02.269Z,13.00
2023-05-14T23:54:28.649Z,13.17
2023-05-14T23:56:55.022Z,14.32
2023-05-14T23:59:22.062Z,14.10
